Time;durP1;ratioP1;P1;durP2;ratioP2;P2;SDS_P1;SDS_P2;PMS_P1;PMS_P2;Temp;Humidity;BMP_temperature;BMP_pressure;BME280_temperature;BME280_humidity;BME280_pressure;Samples;Min_cycle;Max_cycle;Signal;HPM_P1;HPM_P2
2021/05/29 00:02:13;;;;;;;8.93;5.70;;;;;;;;;;5093947;28;20028;-64
2021/05/29 00:04:38;;;;;;;7.75;5.78;;;;;;;;;;5093866;28;20469;-64
2021/05/29 00:07:04;;;;;;;5.28;4.45;;;;;;;;;;5093607;28;20042;-64
2021/05/29 00:09:29;;;;;;;5.00;4.53;;;;;;;;;;5094267;28;20016;-64
2021/05/29 00:11:55;;;;;;;5.40;4.30;;;;;;;;;;5093631;28;20024;-64
2021/05/29 00:14:20;;;;;;;4.97;4.22;;;;;;;;;;5093781;28;20016;-64
2021/05/29 00:16:46;;;;;;;4.00;3.60;;;;;;;;;;5093911;28;20024;-64
2021/05/29 00:19:12;;;;;;;4.53;3.80;;;;;;;;;;5093806;28;20020;-65
2021/05/29 00:21:37;;;;;;;3.90;3.53;;;;;;;;;;5093972;28;20059;-64
2021/05/29 00:24:03;;;;;;;4.45;3.78;;;;;;;;;;5093643;28;20062;-64
2021/05/29 00:26:29;;;;;;;4.70;3.90;;;;;;;;;;5093493;28;20024;-64
2021/05/29 00:28:55;;;;;;;5.22;3.70;;;;;;;;;;5093643;28;20024;-64
2021/05/29 00:31:20;;;;;;;4.45;4.15;;;;;;;;;;5093488;28;20020;-63
2021/05/29 00:33:46;;;;;;;4.00;3.70;;;;;;;;;;5093358;28;20042;-63
2021/05/29 00:36:11;;;;;;;3.70;3.40;;;;;;;;;;5093408;28;20022;-64
2021/05/29 00:38:37;;;;;;;3.95;3.65;;;;;;;;;;5092943;28;20036;-64
2021/05/29 00:41:09;;;;;;;3.85;3.55;;;;;;;;;;5075742;28;20078;-63
2021/05/29 00:43:36;;;;;;;4.20;3.80;;;;;;;;;;5093438;28;20020;-68
2021/05/29 00:46:02;;;;;;;4.10;3.70;;;;;;;;;;5093449;28;20020;-67
2021/05/29 00:48:27;;;;;;;4.25;3.95;;;;;;;;;;5093459;28;20098;-67
2021/05/29 00:50:59;;;;;;;4.15;3.75;;;;;;;;;;5093254;28;20409;-67
2021/05/29 00:53:25;;;;;;;4.25;3.85;;;;;;;;;;5058718;28;20047;-67
2021/05/29 00:55:50;;;;;;;4.20;3.83;;;;;;;;;;5093558;28;20022;-67
2021/05/29 00:58:16;;;;;;;4.45;4.05;;;;;;;;;;5075319;28;20036;-66
2021/05/29 01:00:41;;;;;;;3.70;3.50;;;;;;;;;;5093216;28;20032;-67
2021/05/29 01:03:07;;;;;;;4.30;3.92;;;;;;;;;;5095160;28;20028;-67
2021/05/29 01:05:33;;;;;;;4.22;3.92;;;;;;;;;;5097586;28;20370;-67
2021/05/29 01:07:58;;;;;;;4.28;3.88;;;;;;;;;;5097304;28;20028;-64
2021/05/29 01:10:24;;;;;;;3.83;3.53;;;;;;;;;;5079077;28;20016;-64
2021/05/29 01:12:50;;;;;;;4.57;3.88;;;;;;;;;;5097305;28;20374;-64
2021/05/29 01:15:18;;;;;;;3.85;3.65;;;;;;;;;;5079109;28;20017;-66
2021/05/29 01:17:43;;;;;;;3.83;3.60;;;;;;;;;;5096931;28;20032;-65
2021/05/29 01:20:10;;;;;;;4.40;4.10;;;;;;;;;;5096778;28;20016;-65
2021/05/29 01:22:37;;;;;;;4.05;3.78;;;;;;;;;;5097314;28;20111;-65
2021/05/29 01:25:10;;;;;;;4.30;4.03;;;;;;;;;;5097242;28;20020;-65
2021/05/29 01:27:35;;;;;;;4.70;4.30;;;;;;;;;;5097077;28;20485;-66
2021/05/29 01:30:01;;;;;;;4.70;4.40;;;;;;;;;;5097160;28;20016;-66
2021/05/29 01:32:33;;;;;;;4.47;4.07;;;;;;;;;;5096935;28;20078;-65
2021/05/29 01:35:09;;;;;;;4.97;4.57;;;;;;;;;;5078609;28;20028;-65
2021/05/29 01:37:36;;;;;;;4.47;4.18;;;;;;;;;;5096899;28;20366;-66
2021/05/29 01:40:04;;;;;;;4.95;4.55;;;;;;;;;;5096664;28;20059;-67
2021/05/29 01:42:29;;;;;;;5.60;4.45;;;;;;;;;;5096617;28;20069;-66
2021/05/29 01:44:55;;;;;;;4.60;4.30;;;;;;;;;;5078575;28;20487;-66
2021/05/29 01:47:21;;;;;;;5.15;4.75;;;;;;;;;;5096552;28;20031;-66
2021/05/29 01:49:46;;;;;;;5.03;4.63;;;;;;;;;;5096669;28;20370;-67
2021/05/29 01:52:12;;;;;;;5.00;4.70;;;;;;;;;;5096310;28;20032;-67
2021/05/29 01:54:37;;;;;;;4.50;4.30;;;;;;;;;;5096544;28;20107;-67
2021/05/29 01:57:03;;;;;;;4.93;4.57;;;;;;;;;;5096036;28;20031;-67
2021/05/29 01:59:28;;;;;;;5.07;4.57;;;;;;;;;;5096173;28;20032;-68
2021/05/29 02:01:54;;;;;;;4.97;4.57;;;;;;;;;;5078154;28;20032;-67
2021/05/29 02:04:20;;;;;;;4.95;4.50;;;;;;;;;;5078168;28;20060;-67
2021/05/29 02:06:46;;;;;;;4.75;4.45;;;;;;;;;;5096176;28;20478;-66
2021/05/29 02:09:11;;;;;;;4.93;4.55;;;;;;;;;;5096363;28;20035;-67
2021/05/29 02:11:38;;;;;;;5.55;4.97;;;;;;;;;;5096388;28;20023;-66
2021/05/29 02:14:03;;;;;;;4.85;4.45;;;;;;;;;;5095237;28;20017;-66
2021/05/29 02:16:29;;;;;;;5.07;4.57;;;;;;;;;;5096177;28;20035;-65
2021/05/29 02:18:54;;;;;;;4.82;4.47;;;;;;;;;;5095892;28;20016;-65
2021/05/29 02:21:20;;;;;;;4.65;4.35;;;;;;;;;;5095626;28;20028;-65
2021/05/29 02:23:50;;;;;;;5.10;4.70;;;;;;;;;;5095901;28;20012;-66
2021/05/29 02:26:18;;;;;;;4.93;4.55;;;;;;;;;;5096061;28;20020;-66
2021/05/29 02:28:45;;;;;;;6.75;5.15;;;;;;;;;;5095864;28;20066;-66
2021/05/29 02:31:12;;;;;;;5.32;4.88;;;;;;;;;;5095561;28;20028;-67
2021/05/29 02:33:38;;;;;;;5.07;4.68;;;;;;;;;;5077586;28;20120;-66
2021/05/29 02:36:04;;;;;;;5.65;5.22;;;;;;;;;;5077542;28;20107;-67
2021/05/29 02:38:30;;;;;;;5.05;4.63;;;;;;;;;;5091924;28;20375;-68
2021/05/29 02:40:56;;;;;;;6.03;5.53;;;;;;;;;;5075484;28;20087;-66
2021/05/29 02:43:22;;;;;;;5.90;5.38;;;;;;;;;;5075321;28;20403;-65
2021/05/29 02:45:48;;;;;;;5.50;5.00;;;;;;;;;;5075204;28;20024;-65
2021/05/29 02:48:14;;;;;;;6.03;5.32;;;;;;;;;;5075084;28;20481;-66
2021/05/29 02:50:40;;;;;;;7.53;5.75;;;;;;;;;;5056769;28;20554;-66
2021/05/29 02:53:06;;;;;;;6.07;5.57;;;;;;;;;;5075092;28;20025;-66
2021/05/29 02:55:32;;;;;;;6.65;6.05;;;;;;;;;;5074723;28;20025;-64
2021/05/29 02:57:58;;;;;;;6.07;5.68;;;;;;;;;;5074776;28;20028;-64
2021/05/29 03:00:28;;;;;;;6.47;5.97;;;;;;;;;;5074817;28;20033;-64
2021/05/29 03:02:54;;;;;;;6.63;6.03;;;;;;;;;;5074950;28;20028;-64
2021/05/29 03:05:20;;;;;;;7.13;6.10;;;;;;;;;;5074862;28;20380;-64
2021/05/29 03:07:47;;;;;;;6.75;5.85;;;;;;;;;;5074659;28;20016;-64
2021/05/29 03:10:13;;;;;;;6.72;6.10;;;;;;;;;;5056844;28;20059;-64
2021/05/29 03:12:39;;;;;;;6.72;6.13;;;;;;;;;;5074973;28;20460;-64
2021/05/29 03:15:09;;;;;;;6.35;5.88;;;;;;;;;;5074453;28;20426;-66
2021/05/29 03:17:34;;;;;;;6.55;5.95;;;;;;;;;;5074655;28;20029;-66
2021/05/29 03:20:00;;;;;;;6.35;5.85;;;;;;;;;;5074814;28;20024;-67
2021/05/29 03:22:25;;;;;;;6.80;6.20;;;;;;;;;;5040033;28;20024;-65
2021/05/29 03:24:52;;;;;;;6.88;6.28;;;;;;;;;;5074236;28;20036;-65
2021/05/29 03:27:18;;;;;;;7.60;6.88;;;;;;;;;;5073414;28;20082;-65
2021/05/29 03:29:45;;;;;;;7.97;7.18;;;;;;;;;;5074356;28;20021;-65
2021/05/29 03:32:10;;;;;;;9.25;8.20;;;;;;;;;;5074258;28;20035;-65
2021/05/29 03:34:36;;;;;;;8.30;7.60;;;;;;;;;;5074265;28;20459;-65
2021/05/29 03:37:02;;;;;;;9.02;8.15;;;;;;;;;;5056612;28;20072;-64
2021/05/29 03:39:27;;;;;;;8.95;8.07;;;;;;;;;;5085427;28;20457;-64
2021/05/29 03:41:53;;;;;;;9.40;8.45;;;;;;;;;;5094398;28;20099;-64
2021/05/29 03:44:18;;;;;;;9.63;8.65;;;;;;;;;;5094288;28;20028;-64
2021/05/29 03:46:44;;;;;;;9.82;8.80;;;;;;;;;;5093907;28;20390;-64
2021/05/29 03:49:09;;;;;;;8.82;8.05;;;;;;;;;;5076189;28;20071;-64
2021/05/29 03:51:35;;;;;;;9.45;8.45;;;;;;;;;;5094321;28;20027;-64
2021/05/29 03:54:00;;;;;;;8.65;7.85;;;;;;;;;;5094266;28;20035;-64
2021/05/29 03:56:26;;;;;;;9.93;8.93;;;;;;;;;;5076050;28;20028;-67
2021/05/29 03:58:51;;;;;;;8.38;7.65;;;;;;;;;;5094036;28;20028;-67
2021/05/29 04:01:17;;;;;;;8.15;7.45;;;;;;;;;;5094011;28;20099;-64
2021/05/29 04:03:42;;;;;;;8.63;7.82;;;;;;;;;;5093917;28;20046;-63
2021/05/29 04:06:08;;;;;;;6.90;6.30;;;;;;;;;;5093941;28;20351;-65
2021/05/29 04:08:33;;;;;;;8.00;7.18;;;;;;;;;;5093633;28;20035;-65
2021/05/29 04:10:59;;;;;;;8.00;7.00;;;;;;;;;;5093855;28;20442;-65
2021/05/29 04:13:24;;;;;;;8.10;7.40;;;;;;;;;;5093794;28;20422;-65
2021/05/29 04:15:50;;;;;;;8.20;6.80;;;;;;;;;;5093906;28;20533;-65
2021/05/29 04:18:15;;;;;;;7.93;7.22;;;;;;;;;;5094042;28;20036;-65
2021/05/29 04:20:41;;;;;;;7.18;6.57;;;;;;;;;;5094005;28;20024;-66
2021/05/29 04:23:06;;;;;;;7.45;6.75;;;;;;;;;;5093536;28;20031;-65
2021/05/29 04:25:31;;;;;;;7.18;6.30;;;;;;;;;;5075625;28;20028;-65
2021/05/29 04:27:57;;;;;;;7.28;6.57;;;;;;;;;;5093748;28;20488;-65
2021/05/29 04:30:24;;;;;;;6.82;6.30;;;;;;;;;;5093877;28;20016;-65
2021/05/29 04:32:50;;;;;;;6.75;6.20;;;;;;;;;;5093845;28;20095;-66
2021/05/29 04:35:16;;;;;;;7.40;6.50;;;;;;;;;;5075700;28;20073;-66
2021/05/29 04:37:42;;;;;;;6.85;6.25;;;;;;;;;;5093059;28;20036;-66
2021/05/29 04:40:08;;;;;;;6.80;6.20;;;;;;;;;;5093103;28;20048;-66
2021/05/29 04:42:34;;;;;;;6.95;6.45;;;;;;;;;;5093033;28;20028;-67
2021/05/29 04:45:00;;;;;;;7.40;6.22;;;;;;;;;;5093535;28;20043;-67
2021/05/29 04:47:26;;;;;;;6.30;5.72;;;;;;;;;;5093306;28;20482;-67
2021/05/29 04:49:52;;;;;;;6.10;5.60;;;;;;;;;;5093132;28;20099;-67
2021/05/29 04:52:18;;;;;;;6.43;5.65;;;;;;;;;;5075197;28;20030;-65
2021/05/29 04:54:43;;;;;;;6.18;5.68;;;;;;;;;;5093284;28;20044;-65
2021/05/29 04:57:09;;;;;;;7.18;6.15;;;;;;;;;;5093522;28;20032;-65
2021/05/29 04:59:34;;;;;;;6.03;5.53;;;;;;;;;;5075029;28;20540;-63
2021/05/29 05:02:00;;;;;;;6.70;5.35;;;;;;;;;;5093189;28;20110;-62
2021/05/29 05:04:25;;;;;;;5.47;4.88;;;;;;;;;;5093061;28;20470;-62
2021/05/29 05:06:51;;;;;;;5.68;5.18;;;;;;;;;;5092656;28;20028;-62
2021/05/29 05:09:16;;;;;;;5.50;5.03;;;;;;;;;;5093262;28;20039;-61
2021/05/29 05:11:42;;;;;;;4.72;4.32;;;;;;;;;;5092859;28;20125;-61
2021/05/29 05:14:07;;;;;;;4.63;4.32;;;;;;;;;;5092976;28;20020;-61
2021/05/29 05:16:33;;;;;;;4.10;3.90;;;;;;;;;;5092303;28;20039;-62
2021/05/29 05:18:58;;;;;;;4.55;4.15;;;;;;;;;;5092661;28;20015;-61
2021/05/29 05:21:24;;;;;;;6.57;4.53;;;;;;;;;;5092913;28;20075;-61
2021/05/29 05:23:52;;;;;;;3.40;3.20;;;;;;;;;;5093055;28;20008;-62
2021/05/29 05:26:18;;;;;;;4.45;3.60;;;;;;;;;;5092612;28;20481;-62
2021/05/29 05:28:45;;;;;;;3.50;3.30;;;;;;;;;;5092679;28;20016;-62
2021/05/29 05:31:11;;;;;;;3.05;2.85;;;;;;;;;;5092565;28;20020;-62
2021/05/29 05:33:46;;;;;;;3.70;3.08;;;;;;;;;;5092467;28;20460;-62
2021/05/29 05:36:13;;;;;;;3.17;2.95;;;;;;;;;;5091989;28;20034;-61
2021/05/29 05:38:39;;;;;;;3.13;2.92;;;;;;;;;;5087543;28;20032;-62
2021/05/29 05:41:05;;;;;;;5.40;4.90;;;;;;;;;;5072235;28;20029;-61
2021/05/29 05:43:32;;;;;;;6.47;4.97;;;;;;;;;;5054004;28;20039;-62
2021/05/29 05:46:00;;;;;;;9.93;6.00;;;;;;;;;;5072411;28;20063;-62
2021/05/29 05:48:25;;;;;;;13.70;9.57;;;;;;;;;;5072068;28;20048;-61
2021/05/29 05:50:53;;;;;;;32.42;18.02;;;;;;;;;;5075086;28;20017;-61
2021/05/29 05:53:19;;;;;;;23.05;13.30;;;;;;;;;;5075594;28;20036;-61
2021/05/29 05:55:45;;;;;;;15.15;10.57;;;;;;;;;;5075738;28;20028;-62
2021/05/29 05:58:10;;;;;;;26.20;14.95;;;;;;;;;;5075910;28;20020;-61
2021/05/29 06:00:36;;;;;;;15.70;9.07;;;;;;;;;;5075337;28;20107;-62
2021/05/29 06:03:01;;;;;;;51.95;24.58;;;;;;;;;;5075481;28;20706;-62
2021/05/29 06:05:27;;;;;;;45.30;23.30;;;;;;;;;;5072731;28;20104;-61
2021/05/29 06:07:52;;;;;;;87.25;43.53;;;;;;;;;;5075868;28;20089;-61
2021/05/29 06:10:19;;;;;;;21.08;13.32;;;;;;;;;;5075559;28;20025;-61
2021/05/29 06:12:50;;;;;;;38.40;26.98;;;;;;;;;;5075183;28;20021;-61
2021/05/29 06:20:31;;;;;;;45.78;27.48;;;;;;;;;;5075784;28;20036;-61
2021/05/29 06:22:57;;;;;;;25.10;15.20;;;;;;;;;;5075806;28;20021;-61
2021/05/29 06:25:23;;;;;;;107.43;67.90;;;;;;;;;;5075444;28;20122;-61
2021/05/29 06:27:48;;;;;;;303.48;177.45;;;;;;;;;;5075779;28;20424;-61
2021/05/29 06:30:14;;;;;;;62.35;38.40;;;;;;;;;;5075064;28;20032;-61
2021/05/29 06:32:39;;;;;;;322.42;207.13;;;;;;;;;;5075288;28;20513;-61
2021/05/29 06:35:06;;;;;;;18.35;12.90;;;;;;;;;;5075218;28;20075;-61
2021/05/29 06:37:32;;;;;;;241.88;142.27;;;;;;;;;;5075586;28;20082;-60
2021/05/29 06:39:58;;;;;;;1033.43;594.03;;;;;;;;;;5090777;28;20048;-61
2021/05/29 06:42:24;;;;;;;161.13;110.43;;;;;;;;;;5095506;28;20059;-61
2021/05/29 06:44:50;;;;;;;34.05;21.92;;;;;;;;;;5095559;28;20051;-60
2021/05/29 06:47:15;;;;;;;155.57;108.93;;;;;;;;;;5095259;28;20024;-61
2021/05/29 06:49:42;;;;;;;605.13;462.58;;;;;;;;;;5095494;28;20107;-62
2021/05/29 06:52:11;;;;;;;226.43;179.93;;;;;;;;;;5095711;28;20023;-61
2021/05/29 07:00:05;;;;;;;3.55;3.22;;;;;;;;;;5095132;28;20051;-61
2021/05/29 07:02:31;;;;;;;112.55;92.03;;;;;;;;;;5094280;28;20016;-61
2021/05/29 07:04:56;;;;;;;13.20;10.35;;;;;;;;;;5095169;28;20079;-61
2021/05/29 07:07:22;;;;;;;2.20;2.10;;;;;;;;;;5095433;28;20035;-61
2021/05/29 07:09:47;;;;;;;5.00;2.75;;;;;;;;;;5094717;28;20020;-61
2021/05/29 07:12:13;;;;;;;2.72;2.47;;;;;;;;;;5094825;28;20462;-61
2021/05/29 07:14:38;;;;;;;20.50;14.27;;;;;;;;;;5094918;28;20032;-61
2021/05/29 07:17:06;;;;;;;1.90;1.60;;;;;;;;;;5094674;28;20023;-62
2021/05/29 07:19:32;;;;;;;22.20;11.80;;;;;;;;;;5094886;28;20035;-62
2021/05/29 07:21:57;;;;;;;20.50;10.77;;;;;;;;;;5094828;28;20474;-62
2021/05/29 07:24:23;;;;;;;2.22;2.03;;;;;;;;;;5094779;28;20047;-62
2021/05/29 07:26:49;;;;;;;1.98;1.88;;;;;;;;;;5094474;28;20024;-61
2021/05/29 07:29:15;;;;;;;32.95;13.60;;;;;;;;;;5094709;28;20034;-62
2021/05/29 07:31:41;;;;;;;3.03;2.75;;;;;;;;;;5094607;28;20102;-61
2021/05/29 07:34:07;;;;;;;2.20;2.00;;;;;;;;;;5094537;28;20020;-62
2021/05/29 07:36:32;;;;;;;353.10;112.60;;;;;;;;;;5094326;28;20537;-61
2021/05/29 07:38:57;;;;;;;41.85;19.48;;;;;;;;;;5093886;28;20044;-62
2021/05/29 07:41:24;;;;;;;71.05;21.38;;;;;;;;;;5094453;28;20064;-62
2021/05/29 07:43:50;;;;;;;776.85;253.07;;;;;;;;;;5094058;28;20410;-62
2021/05/29 07:46:17;;;;;;;206.30;79.35;;;;;;;;;;5094072;28;20020;-62
2021/05/29 07:48:42;;;;;;;2.60;2.40;;;;;;;;;;5094374;28;20379;-62
2021/05/29 07:51:09;;;;;;;3.05;2.38;;;;;;;;;;5085595;28;20054;-61
2021/05/29 07:53:38;;;;;;;2.03;1.92;;;;;;;;;;5091182;28;20472;-62
2021/05/29 07:56:06;;;;;;;4.07;2.22;;;;;;;;;;5090868;28;20020;-61
2021/05/29 07:58:32;;;;;;;17.65;6.95;;;;;;;;;;5090303;28;20056;-61
2021/05/29 08:00:58;;;;;;;3.08;2.53;;;;;;;;;;5090185;28;20062;-62
2021/05/29 08:03:24;;;;;;;2.00;1.90;;;;;;;;;;5090515;28;20166;-62
2021/05/29 08:05:51;;;;;;;2.38;2.28;;;;;;;;;;5090593;28;20016;-62
2021/05/29 08:08:17;;;;;;;221.48;70.85;;;;;;;;;;5090790;28;20081;-61
2021/05/29 08:10:46;;;;;;;2.80;2.55;;;;;;;;;;5093856;28;20028;-62
2021/05/29 08:13:11;;;;;;;20.90;7.05;;;;;;;;;;5093412;28;20039;-61
2021/05/29 08:15:37;;;;;;;595.35;209.88;;;;;;;;;;5093773;28;20019;-61
2021/05/29 08:18:03;;;;;;;17.05;9.57;;;;;;;;;;5093677;28;20078;-62
2021/05/29 08:20:28;;;;;;;3.35;2.40;;;;;;;;;;5075603;28;20047;-61
2021/05/29 08:22:54;;;;;;;2.38;2.17;;;;;;;;;;5093598;28;20040;-61
2021/05/29 08:25:19;;;;;;;2.10;2.00;;;;;;;;;;5093640;28;20461;-61
2021/05/29 08:27:45;;;;;;;30.92;12.90;;;;;;;;;;5093524;28;20050;-61
2021/05/29 08:30:11;;;;;;;2.58;2.38;;;;;;;;;;5093810;28;20106;-62
2021/05/29 08:32:36;;;;;;;2.72;2.42;;;;;;;;;;5093516;28;20015;-62
2021/05/29 08:35:04;;;;;;;2.08;1.90;;;;;;;;;;5093530;28;20492;-62
2021/05/29 08:37:30;;;;;;;2.92;2.08;;;;;;;;;;5093494;28;20123;-62
2021/05/29 08:39:55;;;;;;;2.55;2.42;;;;;;;;;;5093116;28;20119;-62
2021/05/29 08:42:21;;;;;;;3.25;3.05;;;;;;;;;;5093099;28;20031;-61
2021/05/29 08:44:47;;;;;;;2.90;2.70;;;;;;;;;;5093470;28;20439;-61
2021/05/29 08:47:12;;;;;;;2.67;2.47;;;;;;;;;;5093428;28;20035;-61
2021/05/29 08:49:38;;;;;;;2.53;2.33;;;;;;;;;;5093662;28;20012;-61
2021/05/29 08:52:03;;;;;;;2.80;2.50;;;;;;;;;;5093448;28;20021;-61
2021/05/29 08:54:30;;;;;;;6.65;3.88;;;;;;;;;;5075090;28;20016;-61
2021/05/29 08:56:56;;;;;;;3.03;2.78;;;;;;;;;;5093161;28;20025;-61
2021/05/29 08:59:21;;;;;;;2.50;2.30;;;;;;;;;;5092621;28;20043;-61
2021/05/29 09:01:47;;;;;;;2.58;2.42;;;;;;;;;;5093229;28;20062;-61
2021/05/29 09:04:14;;;;;;;2.70;2.50;;;;;;;;;;5070572;28;20500;-61
2021/05/29 09:06:41;;;;;;;3.30;3.10;;;;;;;;;;5093213;28;20067;-61
2021/05/29 09:09:08;;;;;;;4.85;4.45;;;;;;;;;;5093068;28;20485;-61
2021/05/29 09:11:37;;;;;;;2.42;2.30;;;;;;;;;;5093059;28;20549;-61
2021/05/29 09:17:03;;;;;;;2.13;1.92;;;;;;;;;;5092862;28;20035;-61
2021/05/29 09:19:29;;;;;;;3.95;2.40;;;;;;;;;;5074510;28;20116;-61
2021/05/29 09:21:55;;;;;;;2.47;2.28;;;;;;;;;;5093185;28;20016;-61
2021/05/29 09:24:21;;;;;;;2.30;2.20;;;;;;;;;;5095672;28;20103;-61
2021/05/29 09:26:54;;;;;;;2.00;1.85;;;;;;;;;;5096791;28;20500;-61
2021/05/29 09:29:23;;;;;;;2.70;2.20;;;;;;;;;;5078580;28;20079;-61
2021/05/29 09:32:00;;;;;;;2.40;2.20;;;;;;;;;;5097072;28;20012;-61
2021/05/29 09:34:43;;;;;;;2.47;2.28;;;;;;;;;;5096817;28;20024;-61
2021/05/29 09:37:13;;;;;;;3.38;3.13;;;;;;;;;;5096955;28;20081;-61
2021/05/29 09:39:40;;;;;;;2.70;2.50;;;;;;;;;;5096555;28;20040;-61
2021/05/29 09:42:06;;;;;;;2.72;2.53;;;;;;;;;;5096609;28;20358;-60
2021/05/29 09:44:32;;;;;;;2.72;2.30;;;;;;;;;;5105995;28;20355;-62
2021/05/29 09:47:03;;;;;;;2.63;2.40;;;;;;;;;;5116638;28;20064;-62
2021/05/29 09:49:52;;;;;;;2.60;2.40;;;;;;;;;;5098430;28;20034;-61
2021/05/29 09:52:28;;;;;;;2.33;2.13;;;;;;;;;;5098948;28;20027;-61
2021/05/29 09:54:55;;;;;;;1.85;1.75;;;;;;;;;;5116963;28;20028;-61
2021/05/29 09:57:21;;;;;;;2.33;2.13;;;;;;;;;;5116794;28;20028;-61
2021/05/29 09:59:56;;;;;;;2.13;2.03;;;;;;;;;;5116673;28;20369;-61
2021/05/29 10:02:22;;;;;;;2.00;1.90;;;;;;;;;;5116815;28;20028;-61
2021/05/29 10:04:53;;;;;;;2.38;2.25;;;;;;;;;;5116634;28;20022;-61
2021/05/29 10:07:19;;;;;;;2.80;2.00;;;;;;;;;;5116286;28;20114;-61
2021/05/29 10:09:45;;;;;;;2.63;2.42;;;;;;;;;;5116469;28;20020;-61
2021/05/29 10:12:10;;;;;;;2.38;2.28;;;;;;;;;;5098413;28;20039;-61
2021/05/29 10:14:36;;;;;;;2.08;1.98;;;;;;;;;;5116333;28;20022;-61
2021/05/29 10:17:03;;;;;;;2.42;2.08;;;;;;;;;;5116548;28;20032;-61
2021/05/29 10:19:30;;;;;;;4.45;3.47;;;;;;;;;;5098164;28;20027;-61
2021/05/29 10:21:55;;;;;;;4.05;3.30;;;;;;;;;;5116348;28;20030;-61
2021/05/29 10:24:23;;;;;;;1.60;1.50;;;;;;;;;;5116493;28;20016;-61
2021/05/29 10:26:50;;;;;;;1.92;1.80;;;;;;;;;;5116017;28;20035;-61
2021/05/29 10:29:16;;;;;;;283.27;104.63;;;;;;;;;;5116180;28;20111;-62
2021/05/29 10:31:42;;;;;;;80.47;31.45;;;;;;;;;;5115999;28;20065;-63
2021/05/29 10:34:09;;;;;;;34.33;15.73;;;;;;;;;;5116185;28;20012;-63
2021/05/29 10:36:35;;;;;;;22.80;9.55;;;;;;;;;;5115371;28;20476;-63
2021/05/29 10:39:01;;;;;;;150.73;44.50;;;;;;;;;;5115741;28;20043;-63
2021/05/29 10:41:45;;;;;;;87.25;33.13;;;;;;;;;;5115842;28;20058;-63
2021/05/29 10:44:29;;;;;;;793.25;296.88;;;;;;;;;;5115875;28;20115;-63
2021/05/29 10:47:04;;;;;;;252.68;75.43;;;;;;;;;;5115651;28;20521;-63
2021/05/29 10:49:48;;;;;;;1550.35;538.20;;;;;;;;;;5115767;28;20016;-63
2021/05/29 10:52:33;;;;;;;619.97;207.07;;;;;;;;;;5115720;28;20114;-63
2021/05/29 10:55:13;;;;;;;155.35;51.88;;;;;;;;;;5115505;28;20028;-63
2021/05/29 10:57:39;;;;;;;;;;;;;;;;;;5116077;28;20047;-63
2021/05/29 11:00:05;;;;;;;228.30;70.50;;;;;;;;;;5114718;28;20326;-63
2021/05/29 11:02:30;;;;;;;826.65;285.65;;;;;;;;;;5115119;28;20093;-62
2021/05/29 11:05:15;;;;;;;638.22;206.45;;;;;;;;;;5107450;28;20031;-61
2021/05/29 11:07:41;;;;;;;5.53;3.30;;;;;;;;;;5111628;28;20032;-62
2021/05/29 11:10:07;;;;;;;146.07;38.70;;;;;;;;;;5106708;28;20024;-62
2021/05/29 11:12:46;;;;;;;64.93;21.60;;;;;;;;;;5070291;28;20835;-62
2021/05/29 11:15:12;;;;;;;5.77;3.47;;;;;;;;;;5090831;28;20036;-62
2021/05/29 11:17:37;;;;;;;68.82;19.63;;;;;;;;;;5090051;28;20462;-61
2021/05/29 11:20:11;;;;;;;21.50;7.53;;;;;;;;;;5090267;28;20071;-62
2021/05/29 11:22:38;;;;;;;3.72;2.17;;;;;;;;;;5088147;28;20058;-62
2021/05/29 11:25:03;;;;;;;11.88;3.85;;;;;;;;;;5089021;28;20035;-62
2021/05/29 11:27:31;;;;;;;431.70;117.18;;;;;;;;;;5089712;28;20032;-62
2021/05/29 11:29:57;;;;;;;197.88;55.00;;;;;;;;;;5090410;28;20037;-62
2021/05/29 11:32:45;;;;;;;17.52;7.55;;;;;;;;;;5090909;28;20032;-62
2021/05/29 11:35:22;;;;;;;789.55;269.23;;;;;;;;;;5090812;28;20035;-62
2021/05/29 11:37:57;;;;;;;8.63;4.85;;;;;;;;;;5090966;28;20119;-61
2021/05/29 11:40:38;;;;;;;111.43;37.15;;;;;;;;;;5089556;28;20154;-64
2021/05/29 11:43:04;;;;;;;16.35;6.82;;;;;;;;;;5088743;28;20038;-64
2021/05/29 11:45:29;;;;;;;8.55;4.57;;;;;;;;;;5090662;28;20027;-64
2021/05/29 11:47:55;;;;;;;195.70;72.13;;;;;;;;;;5089899;28;20051;-64
2021/05/29 11:50:20;;;;;;;11.57;6.35;;;;;;;;;;5090107;28;20016;-64
2021/05/29 11:52:46;;;;;;;545.95;253.35;;;;;;;;;;5090484;28;20059;-63
2021/05/29 11:55:14;;;;;;;14.90;8.00;;;;;;;;;;5090285;28;20028;-64
2021/05/29 11:57:59;;;;;;;19.15;7.80;;;;;;;;;;5090613;28;20751;-63
2021/05/29 12:00:25;;;;;;;464.67;238.48;;;;;;;;;;5093190;28;20032;-63
2021/05/29 12:02:51;;;;;;;66.55;33.08;;;;;;;;;;5093815;28;20027;-63
2021/05/29 12:05:18;;;;;;;205.18;100.10;;;;;;;;;;5093947;28;20098;-63
2021/05/29 12:08:05;;;;;;;94.75;52.78;;;;;;;;;;5075595;28;20020;-63
2021/05/29 12:10:50;;;;;;;61.33;35.38;;;;;;;;;;5093749;28;20118;-63
2021/05/29 12:13:22;;;;;;;42.65;22.20;;;;;;;;;;5093972;28;20052;-63
2021/05/29 12:15:57;;;;;;;165.48;97.65;;;;;;;;;;5093825;28;20427;-63
2021/05/29 12:18:24;;;;;;;5.60;4.65;;;;;;;;;;5094048;28;20063;-63
2021/05/29 12:20:59;;;;;;;60.67;36.33;;;;;;;;;;5075831;28;20046;-56
2021/05/29 12:23:25;;;;;;;74.10;45.33;;;;;;;;;;5093810;28;20069;-64
2021/05/29 12:25:51;;;;;;;124.72;82.60;;;;;;;;;;5093683;28;20020;-64
2021/05/29 12:28:17;;;;;;;46.53;32.28;;;;;;;;;;5093565;28;20035;-64
2021/05/29 12:30:42;;;;;;;26.33;20.00;;;;;;;;;;5093656;28;20378;-64
2021/05/29 12:33:17;;;;;;;52.17;38.17;;;;;;;;;;5093463;28;20022;-64
2021/05/29 12:35:43;;;;;;;6.10;5.30;;;;;;;;;;5075488;28;20067;-64
2021/05/29 12:38:08;;;;;;;8.23;7.43;;;;;;;;;;5093424;28;20055;-64
2021/05/29 12:40:35;;;;;;;5.45;4.95;;;;;;;;;;5093636;28;20485;-64
2021/05/29 12:43:01;;;;;;;9.65;8.65;;;;;;;;;;5093510;28;20366;-64
2021/05/29 12:45:28;;;;;;;2.58;2.38;;;;;;;;;;5093499;28;20032;-64
2021/05/29 12:47:55;;;;;;;5.05;4.70;;;;;;;;;;5093161;28;20027;-64
2021/05/29 12:50:24;;;;;;;4.15;3.75;;;;;;;;;;5075366;28;20133;-64
2021/05/29 12:52:49;;;;;;;3.97;3.75;;;;;;;;;;5093565;28;20016;-63
2021/05/29 12:55:27;;;;;;;4.05;3.78;;;;;;;;;;5093383;28;20024;-63
2021/05/29 12:57:53;;;;;;;5.57;5.15;;;;;;;;;;5093651;28;20024;-63
2021/05/29 13:01:00;;;;;;;3.25;3.08;;;;;;;;;;5097492;28;20016;-63
2021/05/29 13:09:08;;;;;;;7.85;4.50;;;;;;;;;;5097703;28;20031;-62
2021/05/29 13:11:34;;;;;;;3.78;3.50;;;;;;;;;;5097632;28;20051;-62
2021/05/29 13:14:04;;;;;;;2.67;2.47;;;;;;;;;;5097370;28;20062;-62
2021/05/29 13:16:45;;;;;;;2.25;2.08;;;;;;;;;;5079011;28;20451;-62
2021/05/29 13:19:10;;;;;;;3.70;2.80;;;;;;;;;;5096555;28;20085;-61
2021/05/29 13:21:48;;;;;;;3.78;3.13;;;;;;;;;;5096810;28;20522;-63
2021/05/29 13:24:34;;;;;;;3.55;2.67;;;;;;;;;;5097183;28;20028;-64
2021/05/29 13:26:59;;;;;;;2.05;1.75;;;;;;;;;;5096820;28;20035;-62
2021/05/29 13:29:25;;;;;;;2.85;2.65;;;;;;;;;;5096973;28;20020;-62
2021/05/29 13:31:50;;;;;;;2.00;1.90;;;;;;;;;;5097274;28;20106;-62
2021/05/29 13:34:16;;;;;;;2.50;1.38;;;;;;;;;;5096816;28;20016;-63
2021/05/29 13:36:41;;;;;;;2.83;2.00;;;;;;;;;;5096712;28;20032;-63
2021/05/29 13:39:07;;;;;;;2.47;2.28;;;;;;;;;;5096364;28;20048;-63
2021/05/29 13:41:34;;;;;;;4.43;2.65;;;;;;;;;;5096696;28;20059;-63
2021/05/29 13:43:59;;;;;;;4.43;3.25;;;;;;;;;;5096003;28;20540;-63
2021/05/29 13:46:25;;;;;;;4.03;2.20;;;;;;;;;;5096581;28;20032;-63
2021/05/29 13:48:50;;;;;;;6.15;4.25;;;;;;;;;;5096553;28;20103;-63
2021/05/29 13:51:17;;;;;;;5.88;4.07;;;;;;;;;;5096800;28;20039;-63
2021/05/29 13:53:42;;;;;;;1.80;1.65;;;;;;;;;;5096717;28;20191;-63
2021/05/29 13:56:08;;;;;;;7.30;4.97;;;;;;;;;;5096486;28;20023;-63
2021/05/29 13:58:33;;;;;;;2.20;2.00;;;;;;;;;;5096530;28;20047;-63
2021/05/29 14:00:59;;;;;;;1.35;1.08;;;;;;;;;;5096506;28;20036;-63
2021/05/29 14:03:24;;;;;;;3.33;2.88;;;;;;;;;;5096267;28;20050;-63
2021/05/29 14:05:50;;;;;;;1.95;1.58;;;;;;;;;;5096258;28;20420;-63
2021/05/29 14:08:16;;;;;;;4.38;3.38;;;;;;;;;;5096313;28;20381;-63
2021/05/29 14:10:42;;;;;;;1.02;1.02;;;;;;;;;;5095388;28;20035;-63
2021/05/29 14:13:07;;;;;;;1.80;1.40;;;;;;;;;;5096125;28;20020;-63
2021/05/29 14:15:33;;;;;;;2.63;1.70;;;;;;;;;;5096197;28;20032;-63
2021/05/29 14:17:58;;;;;;;1.63;1.10;;;;;;;;;;5096059;28;20115;-63
2021/05/29 14:20:24;;;;;;;2.10;1.00;;;;;;;;;;5061248;28;20039;-63
2021/05/29 14:22:49;;;;;;;68.07;38.08;;;;;;;;;;5095838;28;20066;-66
2021/05/29 14:25:15;;;;;;;2.10;1.73;;;;;;;;;;5095938;28;20078;-66
2021/05/29 14:27:41;;;;;;;2.97;1.27;;;;;;;;;;5095703;28;20032;-66
2021/05/29 14:30:07;;;;;;;1.73;1.13;;;;;;;;;;5077346;28;20097;-66
2021/05/29 14:32:33;;;;;;;1.35;1.25;;;;;;;;;;5077803;28;20021;-66
2021/05/29 14:34:58;;;;;;;2.10;1.38;;;;;;;;;;5077382;28;20055;-66
2021/05/29 14:37:24;;;;;;;1.17;0.80;;;;;;;;;;5096120;28;20403;-65
2021/05/29 14:39:49;;;;;;;0.73;0.63;;;;;;;;;;5095537;28;20059;-64
2021/05/29 14:42:15;;;;;;;0.82;0.82;;;;;;;;;;5095440;28;20504;-65
2021/05/29 14:44:40;;;;;;;1.08;1.00;;;;;;;;;;5095869;28;20032;-65
2021/05/29 14:47:06;;;;;;;1.60;1.15;;;;;;;;;;5095540;28;20024;-62
2021/05/29 14:49:31;;;;;;;0.77;0.77;;;;;;;;;;5095284;28;20016;-62
2021/05/29 14:51:57;;;;;;;1.42;1.30;;;;;;;;;;5095576;28;20395;-62
2021/05/29 14:54:25;;;;;;;1.10;1.00;;;;;;;;;;5092764;28;20059;-62
2021/05/29 14:56:50;;;;;;;0.75;0.75;;;;;;;;;;5091203;28;20016;-62